Time;durP1;ratioP1;P1;durP2;ratioP2;P2;SDS_P1;SDS_P2;PMS_P1;PMS_P2;Temp;Humidity;BMP_temperature;BMP_pressure;BME280_temperature;BME280_humidity;BME280_pressure;Samples;Min_cycle;Max_cycle;Signal;HPM_P1;HPM_P2
2022/10/07 00:00:27;;;;;;;12.75;4.22;;;;;;;16.47;100.00;100736.10;1708998;82;21482;-61
2022/10/07 00:02:54;;;;;;;8.80;4.08;;;;;;;16.45;100.00;100737.98;1713142;81;21518;-61
2022/10/07 00:05:21;;;;;;;6.28;4.25;;;;;;;16.39;100.00;100736.93;1704811;82;20995;-61
2022/10/07 00:07:49;;;;;;;7.37;4.05;;;;;;;16.33;100.00;100735.00;1715344;82;21542;-61
2022/10/07 00:10:16;;;;;;;7.97;4.67;;;;;;;16.28;100.00;100744.97;1697246;82;22005;-61
2022/10/07 00:12:44;;;;;;;7.35;4.33;;;;;;;16.20;100.00;100737.86;1705614;82;20998;-61
2022/10/07 00:15:12;;;;;;;4.45;4.00;;;;;;;16.12;100.00;100736.03;1713415;82;21530;-61
2022/10/07 00:17:40;;;;;;;6.67;4.75;;;;;;;16.09;100.00;100731.74;1705916;82;21603;-62
2022/10/07 00:20:08;;;;;;;9.83;4.08;;;;;;;15.99;100.00;100737.08;1697196;82;21696;-60
2022/10/07 00:22:35;;;;;;;7.03;4.15;;;;;;;15.94;100.00;100734.66;1701538;82;21896;-60
2022/10/07 00:25:02;;;;;;;4.87;4.12;;;;;;;15.92;100.00;100746.29;1714631;81;21464;-60
2022/10/07 00:27:29;;;;;;;5.57;3.90;;;;;;;15.92;100.00;100748.94;1702459;82;21474;-61
2022/10/07 00:29:56;;;;;;;7.05;4.55;;;;;;;15.89;100.00;100749.92;1705858;82;21014;-60
2022/10/07 00:32:22;;;;;;;4.72;4.30;;;;;;;15.89;100.00;100747.27;1696387;82;21567;-60
2022/10/07 00:34:49;;;;;;;6.15;4.45;;;;;;;15.93;100.00;100747.99;1692513;82;21719;-60
2022/10/07 00:37:16;;;;;;;5.72;4.22;;;;;;;15.92;100.00;100751.59;1704640;82;21548;-60
2022/10/07 00:39:42;;;;;;;6.90;4.15;;;;;;;15.86;100.00;100755.40;1713763;82;21538;-61
2022/10/07 00:42:12;;;;;;;4.25;3.62;;;;;;;15.85;100.00;100755.46;1722045;82;21645;-60
2022/10/07 00:44:41;;;;;;;4.58;3.90;;;;;;;15.84;100.00;100760.36;1696039;82;21184;-60
2022/10/07 00:47:20;;;;;;;5.83;4.97;;;;;;;15.83;100.00;100761.31;1709453;82;21657;-60
2022/10/07 00:50:08;;;;;;;7.70;4.45;;;;;;;15.81;100.00;100765.35;1707151;82;21507;-60
2022/10/07 00:52:39;;;;;;;5.05;3.90;;;;;;;15.75;100.00;100763.84;1717829;82;21494;-60
2022/10/07 00:55:27;;;;;;;5.83;3.92;;;;;;;15.69;100.00;100769.85;1711131;82;21038;-61
2022/10/07 00:57:56;;;;;;;7.87;4.33;;;;;;;15.66;100.00;100770.02;1681182;83;21542;-67
2022/10/07 01:00:23;;;;;;;5.78;4.10;;;;;;;15.61;100.00;100770.68;1682265;83;21960;-60
2022/10/07 01:02:51;;;;;;;4.28;3.67;;;;;;;15.55;100.00;100777.97;1673110;83;21474;-61
2022/10/07 01:05:18;;;;;;;8.55;4.20;;;;;;;15.52;100.00;100778.12;1677423;83;21470;-61
2022/10/07 01:07:47;;;;;;;4.67;4.15;;;;;;;15.45;100.00;100783.78;1677375;83;21499;-61
2022/10/07 01:10:18;;;;;;;5.92;3.80;;;;;;;15.44;100.00;100780.72;1681402;83;21609;-61
2022/10/07 01:13:04;;;;;;;4.90;3.72;;;;;;;15.40;100.00;100783.97;1682571;83;21474;-61
2022/10/07 01:15:42;;;;;;;6.35;4.30;;;;;;;15.35;100.00;100785.95;1673707;83;21522;-60
2022/10/07 01:18:45;;;;;;;4.17;3.80;;;;;;;15.29;100.00;100788.89;1673069;83;21801;-59
2022/10/07 01:21:29;;;;;;;4.50;3.92;;;;;;;15.27;100.00;100792.92;1684351;83;21633;-59
2022/10/07 01:24:19;;;;;;;7.22;4.28;;;;;;;15.23;100.00;100792.66;1670760;83;21497;-60
2022/10/07 01:27:05;;;;;;;7.22;4.15;;;;;;;15.19;100.00;100796.38;1679146;83;21601;-60
2022/10/07 01:29:55;;;;;;;4.42;3.95;;;;;;;15.12;100.00;100800.22;1692029;81;21561;-60
2022/10/07 01:32:31;;;;;;;8.95;3.70;;;;;;;15.09;100.00;100798.58;1698273;81;21127;-59
2022/10/07 01:35:00;;;;;;;4.95;4.45;;;;;;;15.06;100.00;100797.38;1707551;81;27042;-60
2022/10/07 01:37:30;;;;;;;5.00;4.03;;;;;;;15.04;100.00;100800.55;1709777;81;20921;-60
2022/10/07 01:40:00;;;;;;;5.47;4.00;;;;;;;15.04;100.00;100800.55;1707559;81;21827;-60
2022/10/07 01:42:28;;;;;;;5.87;4.15;;;;;;;15.07;100.00;100805.73;1723304;81;21529;-60
2022/10/07 01:44:57;;;;;;;5.65;3.90;;;;;;;15.06;100.00;100803.14;1716932;81;21542;-60
2022/10/07 01:47:27;;;;;;;6.53;3.35;;;;;;;15.02;100.00;100806.38;1709292;81;21497;-60
2022/10/07 01:49:55;;;;;;;7.05;3.52;;;;;;;15.04;100.00;100801.88;1693157;81;21577;-60
2022/10/07 01:52:39;;;;;;;7.28;3.80;;;;;;;15.02;100.00;100798.91;1712280;81;22040;-60
2022/10/07 01:55:34;;;;;;;4.47;3.98;;;;;;;14.99;100.00;100799.44;1711113;81;21690;-59
2022/10/07 01:58:33;;;;;;;4.35;3.77;;;;;;;14.97;100.00;100802.63;1705117;81;21501;-60
2022/10/07 02:01:12;;;;;;;5.60;4.30;;;;;;;14.96;100.00;100806.66;1717349;81;21125;-60
2022/10/07 02:03:47;;;;;;;4.47;4.08;;;;;;;14.92;100.00;100813.86;1689448;81;21547;-60
2022/10/07 02:06:39;;;;;;;4.47;4.08;;;;;;;14.90;100.00;100821.02;1684366;82;21850;-59
2022/10/07 02:09:17;;;;;;;4.65;3.72;;;;;;;14.87;100.00;100826.89;1714717;81;21569;-60
2022/10/07 02:11:44;;;;;;;6.30;4.30;;;;;;;14.84;100.00;100827.02;1697707;81;21419;-60
2022/10/07 02:14:14;;;;;;;4.87;4.07;;;;;;;14.83;100.00;100836.75;1712603;81;21573;-60
2022/10/07 02:16:47;;;;;;;9.28;4.22;;;;;;;14.86;100.00;100840.61;1710722;81;21437;-60
2022/10/07 02:19:23;;;;;;;9.93;4.50;;;;;;;14.88;100.00;100836.11;1712991;81;21486;-60
2022/10/07 02:21:52;;;;;;;4.70;4.30;;;;;;;14.92;100.00;100854.05;1711753;81;21596;-60
2022/10/07 02:24:21;;;;;;;6.95;4.90;;;;;;;14.94;100.00;100854.85;1716489;81;21103;-60
2022/10/07 02:26:50;;;;;;;7.37;4.83;;;;;;;14.98;100.00;100863.06;1714616;81;21628;-60
2022/10/07 02:29:18;;;;;;;5.95;4.22;;;;;;;14.98;100.00;100864.38;1706785;81;21477;-59
2022/10/07 02:31:44;;;;;;;5.20;4.30;;;;;;;15.03;100.00;100866.39;1673934;83;21794;-60
2022/10/07 02:34:14;;;;;;;6.83;4.22;;;;;;;15.02;100.00;100867.30;1658992;84;21609;-60
2022/10/07 02:36:45;;;;;;;10.82;4.60;;;;;;;15.05;100.00;100865.86;1660449;84;21526;-60
2022/10/07 02:39:12;;;;;;;5.20;4.55;;;;;;;15.09;100.00;100872.74;1675150;83;21502;-61
2022/10/07 02:41:50;;;;;;;5.37;4.75;;;;;;;15.08;100.00;100874.98;1660867;84;21033;-60
2022/10/07 02:44:36;;;;;;;4.53;4.12;;;;;;;15.13;100.00;100882.75;1668672;84;21706;-60
2022/10/07 02:47:13;;;;;;;4.55;4.15;;;;;;;15.16;100.00;100881.27;1660359;84;21467;-60
2022/10/07 02:49:44;;;;;;;3.98;3.62;;;;;;;15.21;100.00;100885.07;1667571;84;21557;-60
2022/10/07 02:52:14;;;;;;;6.90;4.37;;;;;;;15.23;100.00;100885.87;1665895;84;21610;-60
2022/10/07 02:54:46;;;;;;;5.12;4.62;;;;;;;15.24;100.00;100888.45;1664266;84;21529;-60
2022/10/07 02:57:15;;;;;;;8.20;4.30;;;;;;;15.27;100.00;100887.45;1645448;84;22009;-60
2022/10/07 02:59:42;;;;;;;4.80;4.40;;;;;;;15.29;100.00;100886.92;1691134;82;21572;-60
2022/10/07 03:02:13;;;;;;;5.87;3.63;;;;;;;15.23;100.00;100891.16;1700707;82;21553;-60
2022/10/07 03:04:41;;;;;;;5.62;4.33;;;;;;;15.26;100.00;100889.25;1665304;83;21542;-60
2022/10/07 03:07:11;;;;;;;8.95;4.83;;;;;;;15.30;100.00;100893.95;1712156;82;21469;-60
2022/10/07 03:09:37;;;;;;;5.87;4.45;;;;;;;15.33;100.00;100897.78;1669133;84;21957;-60
2022/10/07 03:12:06;;;;;;;;;;;;;;;15.30;100.00;100901.91;1702145;82;21430;-60
2022/10/07 03:14:34;;;;;;;8.25;4.25;;;;;;;15.31;100.00;100911.12;1706524;82;20179;-60
2022/10/07 03:17:02;;;;;;;6.70;4.28;;;;;;;15.28;100.00;100905.94;1700026;82;21497;-60
2022/10/07 03:19:28;;;;;;;5.85;4.33;;;;;;;15.30;100.00;100904.08;1706981;82;21603;-59
2022/10/07 03:21:57;;;;;;;6.95;4.25;;;;;;;15.35;100.00;100901.22;1707251;82;21742;-60
2022/10/07 03:24:24;;;;;;;4.67;4.08;;;;;;;15.37;100.00;100902.91;1703254;82;21072;-60
2022/10/07 03:26:52;;;;;;;5.40;4.17;;;;;;;15.42;100.00;100910.64;1661822;84;21506;-60
2022/10/07 03:29:19;;;;;;;5.83;4.30;;;;;;;15.42;100.00;100905.34;1704634;82;21541;-60
2022/10/07 03:31:46;;;;;;;6.87;4.10;;;;;;;15.40;100.00;100911.64;1658789;84;21526;-60
2022/10/07 03:34:12;;;;;;;5.37;3.92;;;;;;;15.35;100.00;100914.03;1707992;82;21779;-62
2022/10/07 03:36:41;;;;;;;;;;;;;;;15.36;100.00;100910.91;1698288;82;21566;-60
2022/10/07 03:39:08;;;;;;;4.50;3.75;;;;;;;15.29;100.00;100915.59;1692618;82;20470;-60
2022/10/07 03:41:36;;;;;;;6.10;3.83;;;;;;;15.22;100.00;100914.16;1704737;82;21582;-60
2022/10/07 03:44:04;;;;;;;4.58;4.17;;;;;;;15.19;100.00;100915.13;1695085;82;21449;-60
2022/10/07 03:46:32;;;;;;;4.85;3.45;;;;;;;15.14;100.00;100906.97;1705064;82;21772;-60
2022/10/07 03:49:00;;;;;;;;;;;;;;;15.11;100.00;100919.89;1711116;82;21584;-60
2022/10/07 03:52:08;;;;;;;6.62;3.80;;;;;;;14.49;100.00;100930.71;1781917;78;23371;-60
2022/10/07 03:54:35;;;;;;;6.20;4.05;;;;;;;14.98;100.00;100918.20;1734504;80;21459;-60
2022/10/07 03:57:48;;;;;;;8.45;3.52;;;;;;;14.94;100.00;100919.26;1733805;81;21569;-60
2022/10/07 03:59:31;;;;;;;7.00;4.17;;;;;;;14.88;100.00;100926.14;1684694;83;21173;-60
2022/10/07 04:01:58;;;;;;;9.10;4.60;;;;;;;14.82;100.00;100935.63;1693654;83;21502;-60
2022/10/07 04:04:25;;;;;;;7.37;3.50;;;;;;;14.76;100.00;100934.55;1695316;83;21470;-60
2022/10/07 04:06:52;;;;;;;5.77;3.97;;;;;;;14.74;100.00;100936.41;1704996;81;21573;-61
2022/10/07 04:09:19;;;;;;;7.75;3.98;;;;;;;14.71;100.00;100938.72;1695401;83;22183;-61
2022/10/07 04:11:47;;;;;;;4.17;3.80;;;;;;;14.71;100.00;100937.84;1703543;83;21418;-60
2022/10/07 04:14:15;;;;;;;4.97;4.12;;;;;;;14.72;100.00;100943.55;1700971;83;21478;-61
2022/10/07 04:16:43;;;;;;;5.53;3.52;;;;;;;14.71;100.00;100941.37;1703968;83;20950;-61
2022/10/07 04:19:12;;;;;;;5.00;3.80;;;;;;;14.73;100.00;100942.61;1699631;81;21470;-61
2022/10/07 04:21:39;;;;;;;3.95;3.42;;;;;;;14.70;100.00;100940.95;1702659;81;22177;-60
2022/10/07 04:24:06;;;;;;;4.72;3.65;;;;;;;14.64;100.00;100942.52;1682652;83;21439;-60
2022/10/07 04:26:33;;;;;;;3.60;3.30;;;;;;;14.62;100.00;100944.38;1686340;83;21579;-60
2022/10/07 04:28:59;;;;;;;5.37;3.05;;;;;;;14.62;100.00;100947.45;1690417;83;21515;-60
2022/10/07 04:31:26;;;;;;;6.03;3.77;;;;;;;14.59;100.00;100951.09;1698850;82;21629;-61
2022/10/07 04:33:55;;;;;;;4.83;3.00;;;;;;;14.54;100.00;100942.43;1698365;83;21858;-60
2022/10/07 04:36:25;;;;;;;7.62;2.98;;;;;;;14.52;100.00;100951.78;1687700;83;21479;-60
2022/10/07 04:38:54;;;;;;;4.42;3.15;;;;;;;14.47;100.00;100956.84;1679580;83;21528;-61
2022/10/07 04:41:23;;;;;;;3.12;2.80;;;;;;;14.45;100.00;100955.58;1691360;83;21543;-61
2022/10/07 04:43:51;;;;;;;3.40;2.67;;;;;;;14.44;100.00;100954.30;1697443;83;21428;-61
2022/10/07 04:46:18;;;;;;;5.62;3.30;;;;;;;14.41;100.00;100957.47;1680132;83;21856;-61
2022/10/07 04:48:52;;;;;;;4.30;2.85;;;;;;;14.39;100.00;100956.67;1686431;83;21066;-63
2022/10/07 04:51:21;;;;;;;4.65;3.08;;;;;;;14.33;100.00;100959.98;1685966;83;21496;-60
2022/10/07 04:53:53;;;;;;;6.12;2.83;;;;;;;14.29;100.00;100963.67;1674798;84;21007;-61
2022/10/07 04:56:22;;;;;;;5.90;3.00;;;;;;;14.29;100.00;100962.35;1671021;83;21184;-61
2022/10/07 04:58:49;;;;;;;5.33;3.17;;;;;;;14.29;100.00;100965.85;1731097;80;21484;-62
2022/10/07 05:01:16;;;;;;;3.37;2.65;;;;;;;14.30;100.00;100972.03;1701694;82;21529;-61
2022/10/07 05:03:46;;;;;;;3.25;2.85;;;;;;;14.31;100.00;100975.91;1690611;83;21446;-62
2022/10/07 05:06:13;;;;;;;3.65;2.42;;;;;;;14.32;100.00;100977.66;1733312;80;21647;-61
2022/10/07 05:08:41;;;;;;;3.30;2.70;;;;;;;14.34;100.00;100977.61;1725889;80;20955;-65
2022/10/07 05:11:09;;;;;;;3.62;2.55;;;;;;;14.36;100.00;100981.91;1698855;82;21841;-65
2022/10/07 05:13:38;;;;;;;8.05;3.20;;;;;;;14.38;100.00;100980.06;1738523;80;21527;-63
2022/10/07 05:16:10;;;;;;;3.15;2.40;;;;;;;14.42;100.00;100982.14;1724659;80;21530;-66
2022/10/07 05:18:38;;;;;;;5.42;2.50;;;;;;;14.46;100.00;100985.06;1692262;82;21747;-62
2022/10/07 05:21:06;;;;;;;6.25;2.47;;;;;;;14.52;100.00;100986.19;1682311;83;21495;-65
2022/10/07 05:23:35;;;;;;;5.17;2.98;;;;;;;14.57;100.00;100990.85;1739804;80;21882;-66
2022/10/07 05:26:06;;;;;;;6.20;2.37;;;;;;;14.66;100.00;100988.33;1736193;80;21471;-65
2022/10/07 05:28:34;;;;;;;3.47;2.25;;;;;;;14.73;100.00;100992.47;1730558;80;21100;-64
2022/10/07 05:31:11;;;;;;;4.70;2.97;;;;;;;14.78;100.00;100986.98;1688205;83;21506;-64
2022/10/07 05:33:38;;;;;;;4.15;2.27;;;;;;;14.82;100.00;100987.72;1699878;83;22034;-65
2022/10/07 05:36:07;;;;;;;5.83;2.80;;;;;;;14.87;100.00;100991.06;1732635;80;22130;-65
2022/10/07 05:38:35;;;;;;;3.42;2.62;;;;;;;14.88;100.00;100994.98;1675682;83;21450;-65
2022/10/07 05:41:05;;;;;;;4.17;2.25;;;;;;;14.93;100.00;100998.29;1695900;82;21530;-64
2022/10/07 05:43:35;;;;;;;6.92;2.87;;;;;;;15.00;100.00;101000.25;1720017;80;21570;-64
2022/10/07 05:46:09;;;;;;;8.98;2.70;;;;;;;15.04;100.00;100999.67;1728997;80;21605;-64
2022/10/07 05:48:37;;;;;;;3.90;2.47;;;;;;;15.10;100.00;101003.39;1739545;80;22081;-61
2022/10/07 05:51:06;;;;;;;4.50;2.50;;;;;;;15.17;100.00;101007.52;1741881;80;21488;-61
2022/10/07 05:53:33;;;;;;;4.87;2.50;;;;;;;15.23;100.00;101007.73;1728515;81;21523;-61
2022/10/07 05:56:05;;;;;;;5.20;2.47;;;;;;;15.28;100.00;101009.75;1723511;81;21093;-62
2022/10/07 05:58:37;;;;;;;8.13;2.17;;;;;;;15.33;100.00;101013.93;1731880;81;21443;-60
2022/10/07 06:01:06;;;;;;;3.67;2.50;;;;;;;15.35;100.00;101013.84;1721930;80;21531;-62
2022/10/07 06:03:33;;;;;;;3.37;2.45;;;;;;;15.38;100.00;101018.56;1720199;81;21533;-65
2022/10/07 06:06:03;;;;;;;5.08;2.72;;;;;;;15.37;100.00;101015.53;1722423;80;20998;-65
2022/10/07 06:08:30;;;;;;;7.75;2.60;;;;;;;15.43;100.00;101022.83;1686049;82;21538;-63
2022/10/07 06:13:53;;;;;;;6.55;2.30;;;;;;;15.48;100.00;101024.37;1732864;80;21947;-64
2022/10/07 06:16:20;;;;;;;5.08;2.25;;;;;;;15.55;100.00;101018.33;1719979;81;21507;-66
2022/10/07 06:18:51;;;;;;;3.90;2.40;;;;;;;15.65;100.00;101025.44;1721674;80;21038;-67
2022/10/07 06:21:19;;;;;;;5.90;2.33;;;;;;;15.67;100.00;101024.46;1688516;82;21065;-66
2022/10/07 06:23:50;;;;;;;7.42;2.47;;;;;;;15.76;100.00;101025.44;1732735;80;21475;-64
2022/10/07 06:26:19;;;;;;;3.77;2.35;;;;;;;15.85;100.00;101030.79;1686353;82;21539;-64
2022/10/07 06:28:47;;;;;;;8.88;2.35;;;;;;;15.90;100.00;101028.81;1724926;82;21425;-66
2022/10/07 06:31:21;;;;;;;8.25;2.20;;;;;;;15.92;100.00;101029.61;1679317;82;21604;-67
2022/10/07 06:33:47;;;;;;;6.87;2.40;;;;;;;15.98;100.00;101023.65;1682504;82;21753;-66
2022/10/07 06:36:14;;;;;;;6.47;2.27;;;;;;;16.04;100.00;101028.68;1676106;83;21570;-66
2022/10/07 06:38:48;;;;;;;;;;;;;;;16.14;100.00;101033.97;1672908;83;22036;-65
2022/10/07 06:41:16;;;;;;;6.92;2.17;;;;;;;16.24;100.00;101028.66;1676725;83;20478;-66
2022/10/07 06:43:44;;;;;;;6.00;2.12;;;;;;;16.30;100.00;101027.53;1725231;81;21535;-66
2022/10/07 06:46:16;;;;;;;5.25;1.90;;;;;;;16.06;100.00;100970.63;1724432;81;21673;-66
2022/10/07 06:48:46;;;;;;;4.33;2.47;;;;;;;16.47;100.00;101024.97;1723753;81;21547;-65
2022/10/07 06:51:20;;;;;;;5.30;2.37;;;;;;;16.51;100.00;101028.34;1719238;81;21824;-65
2022/10/07 06:53:53;;;;;;;8.60;2.45;;;;;;;16.54;100.00;101033.05;1740731;80;21546;-65
2022/10/07 06:56:21;;;;;;;6.22;1.98;;;;;;;16.60;100.00;101032.39;1697131;82;21535;-65
2022/10/07 06:58:48;;;;;;;3.95;1.67;;;;;;;16.68;100.00;101031.56;1697111;82;28667;-64
2022/10/07 07:01:17;;;;;;;5.97;1.70;;;;;;;16.75;100.00;101029.02;1693353;82;21631;-65
2022/10/07 07:03:43;;;;;;;5.50;1.70;;;;;;;16.83;100.00;101035.33;1700238;83;21806;-65
2022/10/07 07:06:10;;;;;;;4.30;1.85;;;;;;;16.88;100.00;101038.64;1693128;82;21078;-64
2022/10/07 07:08:40;;;;;;;6.30;1.70;;;;;;;16.89;100.00;101035.03;1697154;82;21431;-65
2022/10/07 07:13:58;;;;;;;5.22;1.45;;;;;;;17.01;100.00;101033.14;1684198;82;21460;-64
2022/10/07 07:16:25;;;;;;;4.67;2.47;;;;;;;17.05;100.00;101032.53;1673981;84;21449;-66
2022/10/07 07:18:58;;;;;;;8.40;2.12;;;;;;;17.10;100.00;101031.38;1683227;83;21492;-66
2022/10/07 07:21:27;;;;;;;6.20;1.85;;;;;;;17.13;100.00;101027.22;1685116;83;21452;-65
2022/10/07 07:23:54;;;;;;;4.37;1.80;;;;;;;17.17;100.00;101024.43;1675847;83;21512;-65
2022/10/07 07:26:20;;;;;;;6.73;2.80;;;;;;;17.19;100.00;101026.06;1688275;83;21054;-66
2022/10/07 07:28:59;;;;;;;8.15;2.55;;;;;;;17.27;100.00;101023.92;1684997;83;21907;-68
2022/10/07 07:31:29;;;;;;;6.53;1.82;;;;;;;17.36;100.00;101020.41;1685506;82;21558;-67
2022/10/07 07:33:59;;;;;;;6.40;2.00;;;;;;;17.51;100.00;101023.15;1683611;83;21424;-65
2022/10/07 07:36:26;;;;;;;5.00;1.98;;;;;;;17.60;100.00;101019.18;1678268;84;21455;-67
2022/10/07 07:38:57;;;;;;;6.28;1.90;;;;;;;17.71;100.00;101019.50;1709600;82;20986;-67
2022/10/07 07:41:28;;;;;;;5.28;2.47;;;;;;;17.78;99.21;101024.50;1710436;82;21671;-67
2022/10/07 07:43:57;;;;;;;5.35;1.60;;;;;;;17.80;98.07;101020.84;1687885;82;20963;-67
2022/10/07 07:46:28;;;;;;;7.05;1.87;;;;;;;17.85;97.63;101018.81;1689351;83;21569;-65
2022/10/07 07:48:55;;;;;;;3.12;1.80;;;;;;;17.92;95.65;101014.53;1690346;82;21532;-67
2022/10/07 07:51:22;;;;;;;6.10;2.17;;;;;;;17.99;94.19;101015.91;1689916;83;21661;-67
2022/10/07 07:53:49;;;;;;;3.45;1.42;;;;;;;18.05;93.37;101019.60;1674896;83;22130;-66
2022/10/07 07:56:17;;;;;;;4.67;1.85;;;;;;;18.10;93.27;101012.22;1684007;82;21463;-66
2022/10/07 07:58:44;;;;;;;4.40;1.47;;;;;;;18.15;92.61;101018.64;1673837;82;21535;-66
2022/10/07 08:01:13;;;;;;;4.08;1.77;;;;;;;18.18;92.26;101016.69;1725499;80;21506;-66
2022/10/07 08:03:42;;;;;;;5.90;1.60;;;;;;;18.25;92.02;101015.42;1730185;81;21573;-66
2022/10/07 08:06:10;;;;;;;2.72;1.25;;;;;;;18.28;92.07;101013.91;1727455;80;21464;-67
2022/10/07 08:08:41;;;;;;;6.15;1.75;;;;;;;18.31;90.38;101009.36;1728733;81;21444;-66
2022/10/07 08:11:15;;;;;;;23.12;3.33;;;;;;;18.34;90.48;101010.54;1674407;82;21467;-67
2022/10/07 08:13:43;;;;;;;5.75;1.95;;;;;;;18.37;88.29;101013.05;1720785;81;21046;-67
2022/10/07 08:16:13;;;;;;;;;;;;;;;18.41;89.35;101007.95;1684193;82;21124;-66
2022/10/07 08:18:46;;;;;;;3.17;1.30;;;;;;;18.47;84.04;101004.46;1683707;82;21845;-67
2022/10/07 08:21:13;;;;;;;6.37;2.27;;;;;;;18.50;88.68;101004.78;1725451;80;21574;-67
2022/10/07 08:23:42;;;;;;;3.42;1.62;;;;;;;18.56;89.07;101001.78;1716854;81;21503;-67
2022/10/07 08:26:09;;;;;;;4.22;1.80;;;;;;;18.65;89.04;101008.42;1727549;81;21436;-67
2022/10/07 08:28:36;;;;;;;5.27;1.60;;;;;;;18.71;87.24;101007.22;1711940;82;21543;-67
2022/10/07 08:31:09;;;;;;;2.45;1.32;;;;;;;18.75;86.87;101000.30;1687687;82;22179;-67
2022/10/07 08:33:41;;;;;;;1.92;1.10;;;;;;;18.83;84.97;101002.56;1681985;82;21502;-67
2022/10/07 08:36:12;;;;;;;5.60;2.00;;;;;;;18.91;83.83;100999.02;1728058;81;21570;-66
2022/10/07 08:38:39;;;;;;;3.92;1.40;;;;;;;18.97;84.45;101000.47;1686245;82;21483;-67
2022/10/07 08:41:17;;;;;;;2.87;1.52;;;;;;;19.02;84.29;100996.60;1727389;81;21503;-66
2022/10/07 08:43:46;;;;;;;5.80;1.50;;;;;;;19.09;82.84;100998.43;1712879;81;21823;-67
2022/10/07 08:46:16;;;;;;;2.90;1.67;;;;;;;19.20;83.43;100998.67;1684974;82;21573;-67
2022/10/07 08:48:52;;;;;;;5.30;2.30;;;;;;;19.26;82.22;100998.80;1726653;81;21503;-66
2022/10/07 08:51:38;;;;;;;5.28;2.33;;;;;;;19.33;81.89;101003.31;1715985;81;21442;-65
2022/10/07 08:54:05;;;;;;;6.62;1.95;;;;;;;19.38;81.30;101008.77;1717109;81;21522;-66
2022/10/07 08:56:32;;;;;;;4.25;2.00;;;;;;;19.45;81.24;100996.77;1728839;79;21911;-67
2022/10/07 08:59:15;;;;;;;3.95;1.60;;;;;;;19.52;80.57;101000.43;1722278;81;21026;-68
2022/10/07 09:02:12;;;;;;;2.20;1.50;;;;;;;19.52;78.30;100999.09;1723102;81;21547;-65
2022/10/07 09:05:19;;;;;;;2.03;1.40;;;;;;;19.48;77.52;100994.87;1720061;81;21440;-66
2022/10/07 09:07:55;;;;;;;3.40;2.20;;;;;;;19.48;76.92;100991.75;1686511;84;21392;-66
2022/10/07 09:10:43;;;;;;;3.87;2.02;;;;;;;19.43;76.13;100990.66;1720266;81;21858;-66
2022/10/07 09:13:15;;;;;;;;;;;;;;;19.50;75.74;100994.33;1729680;80;21562;-67
2022/10/07 09:15:57;;;;;;;7.33;2.22;;;;;;;19.57;69.29;100990.33;1732876;81;20429;-68
2022/10/07 09:18:38;;;;;;;20.82;13.15;;;;;;;19.63;74.17;100988.66;1733102;81;21616;-68
2022/10/07 09:21:09;;;;;;;26.80;18.57;;;;;;;19.71;74.96;100985.52;1728884;80;21547;-67
2022/10/07 09:23:37;;;;;;;14.05;11.00;;;;;;;19.76;73.81;100991.45;1728152;81;21606;-66
2022/10/07 09:26:16;;;;;;;6.50;5.83;;;;;;;19.86;74.45;100986.45;1715160;81;21076;-68
2022/10/07 09:28:42;;;;;;;7.40;4.20;;;;;;;19.92;71.52;100984.25;1722014;81;21498;-68
2022/10/07 09:31:12;;;;;;;3.90;2.50;;;;;;;19.96;72.12;100987.59;1680556;84;21490;-66
2022/10/07 09:33:49;;;;;;;3.70;2.83;;;;;;;20.08;71.49;100985.52;1689863;82;21562;-66
2022/10/07 09:36:17;;;;;;;5.05;3.30;;;;;;;20.16;70.22;100984.56;1693410;84;21740;-67
2022/10/07 09:38:47;;;;;;;8.53;3.08;;;;;;;20.19;69.70;100977.71;1681392;82;21558;-67
2022/10/07 09:41:29;;;;;;;3.05;1.90;;;;;;;20.26;68.85;100986.67;1729823;80;21573;-68
2022/10/07 09:44:18;;;;;;;4.20;1.90;;;;;;;20.33;68.97;100985.34;1723409;80;21576;-69
2022/10/07 09:46:56;;;;;;;3.90;1.52;;;;;;;20.43;68.66;100983.31;1685488;82;21531;-67
2022/10/07 09:49:42;;;;;;;2.55;1.50;;;;;;;20.60;69.09;100981.42;1736162;81;21839;-67
2022/10/07 09:52:24;;;;;;;3.40;1.80;;;;;;;20.64;68.45;100975.41;1679168;83;21620;-65
2022/10/07 09:54:54;;;;;;;4.33;1.70;;;;;;;20.64;67.99;100970.06;1734533;80;21045;-64
2022/10/07 09:57:32;;;;;;;2.12;1.52;;;;;;;20.74;67.17;100969.88;1733589;80;20998;-65
2022/10/07 10:00:16;;;;;;;3.87;1.70;;;;;;;20.76;65.04;100967.95;1688902;82;21028;-65
2022/10/07 10:02:48;;;;;;;2.98;1.42;;;;;;;20.82;64.82;100964.03;1697428;83;21946;-66
2022/10/07 10:05:26;;;;;;;1.70;1.25;;;;;;;20.86;63.64;100961.53;1691899;82;21500;-66
2022/10/07 10:07:58;;;;;;;4.75;2.58;;;;;;;20.93;63.38;100961.03;1696767;82;21515;-68
2022/10/07 10:10:32;;;;;;;2.80;1.32;;;;;;;21.03;61.95;100959.94;1691291;82;21605;-67
2022/10/07 10:13:03;;;;;;;4.42;1.85;;;;;;;21.15;60.07;100947.56;1688838;83;21483;-67
2022/10/07 10:15:41;;;;;;;3.50;1.52;;;;;;;21.15;60.07;100947.56;1715295;80;21911;-67
2022/10/07 10:18:39;;;;;;;3.33;1.70;;;;;;;21.23;60.31;100951.06;1735610;80;21531;-67
2022/10/07 10:21:20;;;;;;;6.47;1.73;;;;;;;21.32;60.19;100942.42;1740631;80;21614;-66
2022/10/07 10:23:54;;;;;;;4.33;1.77;;;;;;;21.37;60.00;100937.14;1738970;80;21450;-69
2022/10/07 10:26:28;;;;;;;4.65;1.55;;;;;;;21.47;59.81;100943.24;1731663;80;21436;-66
2022/10/07 10:29:07;;;;;;;6.30;1.20;;;;;;;21.50;57.98;100926.50;1735276;80;21569;-68
2022/10/07 10:32:23;;;;;;;2.98;1.75;;;;;;;21.50;57.98;100926.50;1735523;80;21198;-67
2022/10/07 10:35:26;;;;;;;6.40;1.70;;;;;;;21.54;58.41;100929.83;1737329;80;21428;-68
2022/10/07 10:38:19;;;;;;;3.08;1.50;;;;;;;21.48;58.47;100924.91;1727034;80;21494;-67
2022/10/07 10:41:09;;;;;;;2.65;1.35;;;;;;;21.55;57.88;100927.05;1726105;80;21640;-68
2022/10/07 10:43:51;;;;;;;2.75;1.37;;;;;;;21.62;58.23;100919.45;1700987;82;22009;-67
2022/10/07 10:46:40;;;;;;;3.22;1.80;;;;;;;21.62;57.75;100925.28;1694586;82;20990;-67
2022/10/07 10:49:29;;;;;;;3.92;1.40;;;;;;;21.63;56.81;100919.83;1698339;83;21621;-67
2022/10/07 10:52:27;;;;;;;3.42;1.20;;;;;;;21.64;55.59;100913.98;1735463;80;21427;-66
2022/10/07 10:55:23;;;;;;;4.25;1.75;;;;;;;21.81;54.42;100908.80;1728189;80;21550;-65
2022/10/07 10:57:56;;;;;;;2.47;1.67;;;;;;;21.81;54.42;100908.80;1694811;82;21917;-67
2022/10/07 11:00:22;;;;;;;4.58;1.42;;;;;;;21.90;54.19;100910.34;1679901;83;21855;-69
2022/10/07 11:03:28;;;;;;;1.67;1.12;;;;;;;22.02;54.97;100905.97;1660786;84;21562;-67
2022/10/07 11:05:57;;;;;;;3.95;1.30;;;;;;;22.02;54.97;100905.97;1676087;82;21654;-69
2022/10/07 11:08:33;;;;;;;2.33;1.40;;;;;;;22.07;54.65;100904.29;1663009;82;21512;-67
2022/10/07 11:11:13;;;;;;;4.92;1.62;;;;;;;22.06;54.77;100896.75;1658575;82;21484;-69
2022/10/07 11:13:59;;;;;;;4.53;1.42;;;;;;;22.06;54.57;100900.77;1673979;83;21997;-67
2022/10/07 11:16:32;;;;;;;3.83;1.50;;;;;;;22.07;54.90;100899.78;1689228;83;21492;-69
2022/10/07 11:19:03;;;;;;;4.47;1.72;;;;;;;22.06;54.11;100897.23;1688548;82;21559;-67
2022/10/07 11:21:49;;;;;;;3.87;1.57;;;;;;;22.03;53.48;100896.95;1687411;83;21603;-68
2022/10/07 11:24:30;;;;;;;2.20;1.60;;;;;;;21.96;53.17;100891.66;1686649;82;21798;-69
2022/10/07 11:27:26;;;;;;;3.08;1.40;;;;;;;21.90;54.67;100892.09;1680073;82;21563;-69
2022/10/07 11:30:17;;;;;;;4.05;1.40;;;;;;;22.09;53.99;100892.48;1699575;82;20986;-68
2022/10/07 11:33:00;;;;;;;5.37;1.42;;;;;;;22.09;53.99;100892.48;1688568;84;21581;-67
2022/10/07 11:35:33;;;;;;;4.08;1.60;;;;;;;22.21;53.89;100883.20;1689654;82;21425;-65
2022/10/07 11:38:15;;;;;;;5.33;1.82;;;;;;;22.21;53.89;100883.20;1691656;82;21781;-67
2022/10/07 11:40:52;;;;;;;3.70;1.67;;;;;;;22.31;51.87;100883.81;1684173;84;21078;-68
2022/10/07 11:43:35;;;;;;;4.55;1.70;;;;;;;22.37;51.70;100876.30;1677510;82;21581;-67
2022/10/07 11:46:07;;;;;;;4.70;2.30;;;;;;;22.37;51.70;100876.30;1689159;82;21018;-68
2022/10/07 11:48:53;;;;;;;2.37;1.10;;;;;;;22.45;52.09;100878.80;1691276;82;21601;-71
2022/10/07 11:51:38;;;;;;;3.95;1.82;;;;;;;22.63;51.19;100868.54;1690136;82;21772;-68
2022/10/07 11:54:07;;;;;;;2.72;1.52;;;;;;;22.63;51.19;100868.54;1701592;82;21499;-69